Time;durP1;ratioP1;P1;durP2;ratioP2;P2;SDS_P1;SDS_P2;PMS_P1;PMS_P2;Temp;Humidity;BMP_temperature;BMP_pressure;BME280_temperature;BME280_humidity;BME280_pressure;Samples;Min_cycle;Max_cycle;Signal;HPM_P1;HPM_P2
2023/08/10 00:01:43;;;;;;;2.08;1.23;;;12.90;97.50;;;;;;4953972;28;93883;-77
2023/08/10 00:04:09;;;;;;;5.47;1.20;;;12.80;97.60;;;;;;4954613;28;93707;-77
2023/08/10 00:06:34;;;;;;;3.33;1.70;;;12.80;97.70;;;;;;4953085;28;92871;-77
2023/08/10 00:09:00;;;;;;;4.60;1.50;;;12.70;97.70;;;;;;4955085;28;92660;-77
2023/08/10 00:11:26;;;;;;;1.95;1.30;;;12.70;98.00;;;;;;4951401;28;94792;-77
2023/08/10 00:13:52;;;;;;;4.50;1.50;;;12.70;98.00;;;;;;4952664;28;94672;-77
2023/08/10 00:16:17;;;;;;;3.13;1.45;;;12.60;97.90;;;;;;4953738;28;92258;-77
2023/08/10 00:18:44;;;;;;;1.90;1.00;;;12.60;97.90;;;;;;4952986;28;92657;-77
2023/08/10 00:21:10;;;;;;;1.73;1.10;;;12.60;98.00;;;;;;4952345;28;93598;-77
2023/08/10 00:23:36;;;;;;;3.22;1.10;;;12.60;98.00;;;;;;4951956;28;93423;-77
2023/08/10 00:26:03;;;;;;;5.53;1.48;;;12.50;98.00;;;;;;4951875;28;93000;-76
2023/08/10 00:28:28;;;;;;;1.98;1.30;;;12.50;98.00;;;;;;4934460;28;92128;-77
2023/08/10 00:30:54;;;;;;;3.63;1.23;;;12.50;98.10;;;;;;4952462;28;93483;-76
2023/08/10 00:33:20;;;;;;;2.83;1.60;;;12.50;98.20;;;;;;4951194;28;93380;-77
2023/08/10 00:35:46;;;;;;;2.65;1.40;;;12.50;98.80;;;;;;4951747;28;94279;-77
2023/08/10 00:38:12;;;;;;;2.90;1.30;;;12.40;98.70;;;;;;4950966;28;92665;-77
2023/08/10 00:40:38;;;;;;;2.33;1.50;;;12.40;99.20;;;;;;4951657;28;93717;-77
2023/08/10 00:43:03;;;;;;;4.22;1.70;;;12.40;99.40;;;;;;4951440;28;92738;-77
2023/08/10 00:45:30;;;;;;;7.13;1.60;;;12.30;99.70;;;;;;4952039;28;92752;-77
2023/08/10 00:47:56;;;;;;;2.28;1.42;;;12.30;99.80;;;;;;4952617;28;92442;-77
2023/08/10 00:50:23;;;;;;;3.72;2.00;;;12.20;99.60;;;;;;4951707;28;92833;-77
2023/08/10 00:52:49;;;;;;;4.93;1.80;;;12.20;99.60;;;;;;4951871;28;93438;-77
2023/08/10 00:55:14;;;;;;;4.55;1.63;;;12.20;99.60;;;;;;4951700;28;93065;-77
2023/08/10 00:57:40;;;;;;;3.00;1.55;;;12.10;99.50;;;;;;4951647;28;92707;-77
2023/08/10 01:00:10;;;;;;;5.32;1.35;;;12.10;99.50;;;;;;4950497;28;94319;-77
2023/08/10 01:02:39;;;;;;;2.63;1.48;;;12.10;99.30;;;;;;4952651;28;93996;-77
2023/08/10 01:05:12;;;;;;;5.93;1.52;;;12.10;99.30;;;;;;4952122;28;92600;-76
2023/08/10 01:07:51;;;;;;;3.72;1.35;;;12.10;99.30;;;;;;4951838;28;92814;-77
2023/08/10 01:10:17;;;;;;;3.30;1.35;;;12.10;99.30;;;;;;4952057;28;93155;-77
2023/08/10 01:12:54;;;;;;;2.65;1.13;;;12.10;99.20;;;;;;4950772;28;93319;-77
2023/08/10 01:15:24;;;;;;;4.10;1.63;;;12.10;99.10;;;;;;4909808;28;1220464;-77
2023/08/10 01:17:56;;;;;;;3.97;1.13;;;12.10;99.20;;;;;;4954292;28;92119;-77
2023/08/10 01:20:25;;;;;;;2.28;1.23;;;12.00;99.10;;;;;;4951862;28;93405;-77
2023/08/10 01:23:00;;;;;;;2.22;1.42;;;12.00;99.20;;;;;;4952792;28;93025;-77
2023/08/10 01:25:26;;;;;;;2.17;1.70;;;12.00;99.20;;;;;;4952726;28;93847;-76
2023/08/10 01:27:52;;;;;;;2.70;1.20;;;12.00;99.40;;;;;;4952875;28;92974;-77
2023/08/10 01:30:18;;;;;;;1.95;1.50;;;11.90;99.40;;;;;;4952623;28;94073;-77
2023/08/10 01:32:44;;;;;;;4.45;1.80;;;11.90;99.30;;;;;;4953466;28;93375;-77
2023/08/10 01:35:13;;;;;;;6.05;1.60;;;11.90;99.30;;;;;;4951928;28;92488;-77
2023/08/10 01:37:39;;;;;;;5.28;1.65;;;11.90;99.60;;;;;;4952452;28;92726;-77
2023/08/10 01:40:11;;;;;;;1.67;1.45;;;11.80;99.60;;;;;;4952390;28;93664;-77
2023/08/10 01:42:37;;;;;;;3.83;1.45;;;11.80;99.60;;;;;;4952789;28;93957;-77
2023/08/10 01:45:05;;;;;;;2.72;1.80;;;11.80;99.50;;;;;;4953190;28;92875;-76
2023/08/10 01:47:59;;;;;;;5.78;1.80;;;11.80;99.60;;;;;;4953129;28;92655;-77
2023/08/10 01:50:27;;;;;;;2.67;1.80;;;11.80;99.70;;;;;;4953076;28;95075;-77
2023/08/10 01:52:56;;;;;;;3.47;1.77;;;11.80;99.90;;;;;;4955566;28;94344;-77
2023/08/10 01:55:22;;;;;;;6.55;1.63;;;11.80;99.90;;;;;;4956376;28;93904;-77
2023/08/10 01:57:49;;;;;;;4.75;1.98;;;11.80;99.90;;;;;;4955184;28;92936;-77
2023/08/10 02:00:15;;;;;;;9.57;2.72;;;11.80;99.90;;;;;;4956151;28;92977;-77
2023/08/10 02:02:40;;;;;;;4.13;1.50;;;11.80;99.90;;;;;;4955966;28;93277;-77
2023/08/10 02:05:06;;;;;;;3.88;1.20;;;11.80;99.90;;;;;;4953354;28;92930;-77
2023/08/10 02:07:32;;;;;;;4.72;1.90;;;11.80;99.90;;;;;;4955840;28;91755;-77
2023/08/10 02:09:59;;;;;;;3.08;1.45;;;11.80;99.90;;;;;;4956138;28;94166;-77
2023/08/10 02:12:24;;;;;;;3.05;1.70;;;11.80;99.90;;;;;;4953642;28;96357;-77
2023/08/10 02:14:50;;;;;;;2.50;1.45;;;11.80;99.90;;;;;;4955864;28;93762;-77
2023/08/10 02:17:16;;;;;;;4.40;1.67;;;11.80;99.90;;;;;;4956603;28;92442;-77
2023/08/10 02:19:42;;;;;;;3.70;1.70;;;11.80;99.90;;;;;;4947220;28;96270;-77
2023/08/10 02:22:08;;;;;;;2.08;1.60;;;11.80;99.90;;;;;;4955897;28;93887;-77
2023/08/10 02:24:33;;;;;;;4.20;1.88;;;11.70;99.90;;;;;;4955054;28;93108;-77
2023/08/10 02:26:59;;;;;;;6.80;2.35;;;11.70;99.90;;;;;;4955920;28;93052;-77
2023/08/10 02:29:25;;;;;;;4.90;1.50;;;11.70;99.90;;;;;;4956022;28;93141;-77
2023/08/10 02:31:50;;;;;;;2.97;1.63;;;11.70;99.90;;;;;;4954380;28;93451;-77
2023/08/10 02:34:16;;;;;;;3.83;1.73;;;11.70;99.90;;;;;;4955635;28;92335;-77
2023/08/10 02:36:42;;;;;;;3.75;2.20;;;11.70;99.90;;;;;;4954827;28;92869;-77
2023/08/10 02:39:07;;;;;;;4.90;1.52;;;11.60;99.90;;;;;;4954958;28;94730;-77
2023/08/10 02:41:33;;;;;;;4.53;1.90;;;11.60;99.90;;;;;;4954519;28;93080;-77
2023/08/10 02:43:59;;;;;;;3.63;1.88;;;11.60;99.90;;;;;;4955609;28;92965;-77
2023/08/10 02:46:24;;;;;;;5.32;2.15;;;11.60;99.90;;;;;;4955331;28;92588;-76
2023/08/10 02:48:50;;;;;;;4.07;1.83;;;11.60;99.90;;;;;;4954192;28;93292;-77
2023/08/10 02:51:16;;;;;;;3.72;1.85;;;11.60;99.90;;;;;;4954454;28;93456;-77
2023/08/10 02:53:43;;;;;;;4.68;2.00;;;11.60;99.90;;;;;;4955762;28;92098;-77
2023/08/10 02:56:09;;;;;;;3.20;1.60;;;11.60;99.90;;;;;;4953786;28;92514;-77
2023/08/10 02:58:34;;;;;;;3.92;1.80;;;11.60;99.90;;;;;;4954448;28;93094;-77
2023/08/10 03:01:08;;;;;;;4.90;1.73;;;11.60;99.90;;;;;;4953520;28;92495;-77
2023/08/10 03:03:34;;;;;;;;;;;11.60;99.90;;;;;;4935960;28;93773;-77
2023/08/10 03:06:00;;;;;;;7.97;2.65;;;11.60;99.90;;;;;;4956931;28;92847;-76
2023/08/10 03:08:26;;;;;;;6.65;2.70;;;11.60;99.90;;;;;;4952120;28;96706;-77
2023/08/10 03:10:52;;;;;;;3.15;2.22;;;11.60;99.90;;;;;;4954619;28;93407;-77
2023/08/10 03:13:17;;;;;;;4.93;2.47;;;11.60;99.90;;;;;;4953158;28;93516;-76
2023/08/10 03:15:43;;;;;;;8.70;2.10;;;11.60;99.90;;;;;;4954430;28;92723;-77
2023/08/10 03:18:09;;;;;;;5.80;2.28;;;11.60;99.90;;;;;;4954204;28;93722;-77
2023/08/10 03:20:35;;;;;;;4.85;2.13;;;11.60;99.90;;;;;;4955646;28;93014;-77
2023/08/10 03:23:00;;;;;;;5.65;2.00;;;11.60;99.90;;;;;;4954726;28;92602;-77
2023/08/10 03:25:26;;;;;;;6.00;2.17;;;11.50;99.90;;;;;;4952805;28;92869;-77
2023/08/10 03:27:51;;;;;;;3.63;1.83;;;11.50;99.90;;;;;;4953828;28;95110;-77
2023/08/10 03:30:17;;;;;;;7.28;2.15;;;11.60;99.90;;;;;;4954348;28;94957;-77
2023/08/10 03:32:43;;;;;;;2.72;1.92;;;11.50;99.90;;;;;;4955744;28;92881;-77
2023/08/10 03:35:10;;;;;;;4.65;2.45;;;11.50;99.90;;;;;;4955341;28;92837;-77
2023/08/10 03:37:36;;;;;;;3.67;2.17;;;11.50;99.90;;;;;;4956564;28;94112;-77
2023/08/10 03:40:02;;;;;;;5.93;2.53;;;11.50;99.90;;;;;;4954495;28;93736;-76
2023/08/10 03:42:28;;;;;;;5.97;2.08;;;11.50;99.90;;;;;;4947475;28;92906;-77
2023/08/10 03:44:55;;;;;;;3.80;1.95;;;11.50;99.90;;;;;;4956516;28;92000;-77
2023/08/10 03:47:21;;;;;;;5.75;2.20;;;11.40;99.90;;;;;;4954123;28;93519;-77
2023/08/10 03:49:47;;;;;;;7.55;2.22;;;11.40;99.90;;;;;;4954620;28;99844;-77
2023/08/10 03:52:13;;;;;;;5.20;1.85;;;11.40;99.90;;;;;;4955933;28;93892;-77
2023/08/10 03:54:39;;;;;;;3.70;1.90;;;11.40;99.90;;;;;;4955660;28;92530;-77
2023/08/10 03:57:05;;;;;;;5.38;2.75;;;11.40;99.90;;;;;;4955103;28;94772;-77
2023/08/10 03:59:30;;;;;;;5.65;2.33;;;11.40;99.90;;;;;;4955795;28;93139;-77
2023/08/10 04:01:56;;;;;;;2.53;1.80;;;11.30;99.90;;;;;;4954560;28;92336;-77
2023/08/10 04:04:21;;;;;;;4.78;2.30;;;11.30;99.90;;;;;;4952142;28;92921;-77
2023/08/10 04:06:47;;;;;;;9.68;2.53;;;11.30;99.90;;;;;;4951518;28;96859;-77
2023/08/10 04:09:13;;;;;;;6.40;2.17;;;11.30;99.90;;;;;;4954567;28;93389;-77
2023/08/10 04:11:39;;;;;;;6.13;1.90;;;11.30;99.90;;;;;;4954180;28;92947;-77
2023/08/10 04:14:05;;;;;;;4.85;2.05;;;11.30;99.90;;;;;;4952047;28;92570;-77
2023/08/10 04:16:31;;;;;;;4.40;2.13;;;11.30;99.90;;;;;;4951858;28;95082;-77
2023/08/10 04:18:57;;;;;;;3.97;1.90;;;11.30;99.90;;;;;;4952278;28;96816;-77
2023/08/10 04:21:23;;;;;;;2.80;1.85;;;11.30;99.90;;;;;;4954259;28;92943;-77
2023/08/10 04:23:49;;;;;;;4.78;2.28;;;11.30;99.90;;;;;;4954564;28;92542;-77
2023/08/10 04:26:14;;;;;;;6.38;2.28;;;11.30;99.90;;;;;;4953538;28;94582;-77
2023/08/10 04:28:41;;;;;;;6.38;2.25;;;11.20;99.90;;;;;;4954235;28;93728;-77
2023/08/10 04:31:08;;;;;;;7.25;2.00;;;11.30;99.90;;;;;;4953492;28;92662;-77
2023/08/10 04:33:33;;;;;;;4.53;2.00;;;11.20;99.90;;;;;;4936587;28;92469;-77
2023/08/10 04:35:59;;;;;;;6.18;2.40;;;11.20;99.90;;;;;;4955372;28;93740;-77
2023/08/10 04:38:25;;;;;;;4.95;2.08;;;11.20;99.90;;;;;;4936398;28;95971;-77
2023/08/10 04:40:50;;;;;;;5.30;2.45;;;11.20;99.90;;;;;;4951435;28;93751;-77
2023/08/10 04:43:16;;;;;;;3.42;2.17;;;11.20;99.90;;;;;;4954301;28;92637;-77
2023/08/10 04:45:42;;;;;;;7.30;2.63;;;11.20;99.90;;;;;;4953273;28;94253;-77
2023/08/10 04:48:10;;;;;;;5.82;2.42;;;11.20;99.90;;;;;;4953750;28;93336;-77
2023/08/10 04:50:35;;;;;;;4.20;2.17;;;11.20;99.90;;;;;;4954505;28;92930;-77
2023/08/10 04:53:02;;;;;;;7.00;2.80;;;11.20;99.90;;;;;;4953463;28;92589;-77
2023/08/10 04:55:28;;;;;;;6.22;2.55;;;11.20;99.90;;;;;;4953394;28;92724;-77
2023/08/10 04:57:54;;;;;;;6.40;2.83;;;11.20;99.90;;;;;;4952639;28;96537;-77
2023/08/10 05:00:20;;;;;;;7.18;2.35;;;11.30;99.90;;;;;;4953816;28;92962;-77
2023/08/10 05:02:45;;;;;;;7.55;2.53;;;11.20;99.90;;;;;;4954804;28;92566;-77
2023/08/10 05:05:11;;;;;;;5.80;2.35;;;11.30;99.90;;;;;;4934589;28;98059;-77
2023/08/10 05:07:37;;;;;;;5.00;2.65;;;11.30;99.90;;;;;;4953285;28;94316;-77
2023/08/10 05:10:06;;;;;;;8.43;3.40;;;11.30;99.90;;;;;;4954180;28;93008;-77
2023/08/10 05:12:34;;;;;;;6.93;3.05;;;11.30;99.90;;;;;;4952617;28;93138;-77
2023/08/10 05:15:00;;;;;;;4.85;3.10;;;11.40;99.90;;;;;;4953887;28;92909;-77
2023/08/10 05:17:26;;;;;;;8.45;3.13;;;11.40;99.90;;;;;;4951739;28;94000;-77
2023/08/10 05:19:52;;;;;;;5.18;2.83;;;11.40;99.90;;;;;;4954412;28;92774;-76
2023/08/10 05:22:18;;;;;;;7.88;2.65;;;11.50;99.90;;;;;;4954480;28;91931;-77
2023/08/10 05:24:43;;;;;;;9.30;3.20;;;11.50;99.90;;;;;;4953026;28;92784;-77
2023/08/10 05:27:09;;;;;;;4.72;2.90;;;11.60;99.90;;;;;;4951376;28;93360;-77
2023/08/10 05:29:35;;;;;;;4.25;2.70;;;11.60;99.90;;;;;;4954135;28;94029;-77
2023/08/10 05:32:00;;;;;;;4.68;2.88;;;11.70;99.90;;;;;;4953983;28;92709;-77
2023/08/10 05:34:26;;;;;;;4.15;3.05;;;11.80;99.90;;;;;;4954107;28;94011;-77
2023/08/10 05:36:52;;;;;;;8.07;3.45;;;11.90;99.90;;;;;;4953846;28;93509;-77
2023/08/10 05:39:17;;;;;;;10.38;3.80;;;11.90;99.90;;;;;;4954238;28;92476;-77
2023/08/10 05:41:43;;;;;;;11.77;3.42;;;12.00;99.90;;;;;;4954629;28;93191;-77
2023/08/10 05:44:09;;;;;;;5.95;3.13;;;12.10;99.90;;;;;;4953723;28;93507;-77
2023/08/10 05:46:35;;;;;;;5.57;3.10;;;12.20;99.90;;;;;;4950396;28;94552;-77
2023/08/10 05:49:00;;;;;;;13.60;4.45;;;12.20;99.90;;;;;;4954378;28;92959;-77
2023/08/10 05:51:26;;;;;;;8.80;4.05;;;12.30;99.90;;;;;;4953333;28;92747;-77
2023/08/10 05:53:52;;;;;;;33.97;6.57;;;12.40;99.90;;;;;;4954531;28;94763;-77
2023/08/10 05:56:17;;;;;;;12.55;4.18;;;12.50;99.90;;;;;;4944791;28;97336;-77
2023/08/10 05:58:45;;;;;;;23.25;4.72;;;12.60;99.90;;;;;;4953978;28;92688;-79
2023/08/10 06:01:11;;;;;;;10.18;3.50;;;12.70;99.90;;;;;;4953677;28;92864;-78
2023/08/10 06:03:37;;;;;;;9.35;3.45;;;12.80;99.90;;;;;;4952121;28;96731;-78
2023/08/10 06:06:06;;;;;;;15.35;4.20;;;12.90;99.90;;;;;;4953665;28;93220;-78
2023/08/10 06:08:33;;;;;;;15.15;4.20;;;13.00;99.90;;;;;;4952858;28;93354;-78
2023/08/10 06:11:00;;;;;;;8.70;4.20;;;13.20;99.90;;;;;;4936389;28;91959;-78
2023/08/10 06:13:26;;;;;;;15.63;4.13;;;13.20;99.90;;;;;;4953125;28;92892;-78
2023/08/10 06:15:52;;;;;;;19.88;4.80;;;13.40;99.90;;;;;;4949816;28;95199;-77
2023/08/10 06:18:17;;;;;;;30.35;6.97;;;13.50;99.90;;;;;;4953287;28;93467;-78
2023/08/10 06:23:19;;;;;;;29.83;6.55;;;13.70;99.90;;;;;;4978790;22;93871;-81
2023/08/10 06:25:44;;;;;;;15.77;4.10;;;13.90;99.90;;;;;;4944544;28;92303;-81
2023/08/10 06:52:03;;;;;;;11.07;4.38;;;15.30;99.30;;;;;;4945226;28;92511;-95
2023/08/10 06:54:33;;;;;;;8.15;4.38;;;15.40;99.20;;;;;;4929864;28;92564;-95
2023/08/10 06:57:03;;;;;;;10.10;4.07;;;15.60;99.10;;;;;;4919334;28;94426;-95
2023/08/10 06:59:28;;;;;;;10.68;3.97;;;15.70;99.20;;;;;;4917361;28;93839;-96
2023/08/10 07:01:55;;;;;;;26.75;6.38;;;15.90;99.30;;;;;;4916385;28;92504;-95
2023/08/10 07:04:24;;;;;;;35.45;7.43;;;16.00;98.80;;;;;;4925147;28;91612;-96
2023/08/10 07:07:01;;;;;;;59.10;7.93;;;16.10;98.70;;;;;;4929899;28;95493;-96
2023/08/10 07:09:29;;;;;;;19.52;5.00;;;16.30;98.60;;;;;;4927530;28;92034;-95
2023/08/10 07:12:04;;;;;;;16.58;4.10;;;16.50;98.30;;;;;;4931953;28;93442;-95
2023/08/10 07:14:33;;;;;;;20.98;4.45;;;16.60;98.10;;;;;;4936977;28;93788;-96
2023/08/10 07:16:59;;;;;;;10.35;3.67;;;16.80;98.00;;;;;;4909347;28;92424;-96
2023/08/10 07:19:26;;;;;;;9.25;3.47;;;17.00;97.80;;;;;;4934103;28;92814;-95
2023/08/10 07:21:55;;;;;;;6.32;3.13;;;17.20;97.50;;;;;;4931117;28;95499;-95
2023/08/10 07:24:24;;;;;;;18.35;4.68;;;17.30;97.00;;;;;;4903251;28;92771;-95
2023/08/10 07:26:52;;;;;;;12.23;4.05;;;17.50;95.90;;;;;;4923520;28;95636;-96
2023/08/10 07:29:18;;;;;;;16.10;3.80;;;17.60;95.40;;;;;;4940061;28;95504;-96
2023/08/10 07:31:48;;;;;;;29.42;4.40;;;17.70;94.90;;;;;;4928525;28;92559;-96
2023/08/10 07:34:21;;;;;;;13.40;3.90;;;17.80;94.60;;;;;;4933018;28;93044;-96
2023/08/10 07:36:46;;;;;;;8.38;3.22;;;18.00;94.50;;;;;;4923115;28;95039;-94
2023/08/10 07:39:13;;;;;;;11.32;3.58;;;18.10;94.90;;;;;;4916799;28;96490;-93
2023/08/10 07:41:39;;;;;;;18.98;4.35;;;18.30;94.10;;;;;;4927787;28;92282;-96
2023/08/10 07:44:05;;;;;;;9.25;3.30;;;18.40;94.60;;;;;;4912643;28;92716;-96
2023/08/10 07:46:30;;;;;;;10.38;2.70;;;18.60;94.30;;;;;;4914562;28;94988;-96
2023/08/10 07:48:56;;;;;;;10.60;3.00;;;18.70;93.10;;;;;;4912663;28;94390;-95
2023/08/10 07:51:22;;;;;;;4.35;2.10;;;18.90;93.40;;;;;;4917229;28;92552;-95
2023/08/10 07:53:47;;;;;;;9.48;2.38;;;19.00;93.30;;;;;;4916941;28;92897;-95
2023/08/10 07:56:13;;;;;;;4.75;1.92;;;19.20;91.70;;;;;;4914307;28;94671;-94
2023/08/10 07:58:38;;;;;;;3.83;1.58;;;19.30;91.30;;;;;;4921226;28;93892;-95
2023/08/10 08:01:10;;;;;;;8.02;2.00;;;19.50;90.70;;;;;;4913747;28;93758;-93
2023/08/10 08:03:36;;;;;;;6.47;2.22;;;19.60;90.30;;;;;;4914709;28;92923;-95
2023/08/10 08:06:02;;;;;;;5.07;1.67;;;19.70;88.40;;;;;;4914159;28;95918;-95
2023/08/10 08:08:28;;;;;;;4.57;1.77;;;19.90;90.40;;;;;;4913454;28;98161;-95
2023/08/10 08:10:55;;;;;;;7.38;1.60;;;20.10;86.30;;;;;;4931689;28;92800;-96
2023/08/10 08:13:21;;;;;;;4.07;1.42;;;20.20;83.10;;;;;;4915186;28;92535;-95
2023/08/10 08:15:50;;;;;;;4.50;1.30;;;20.30;84.90;;;;;;4914578;28;95253;-95
2023/08/10 08:18:49;;;;;;;4.07;1.40;;;20.50;87.10;;;;;;4920081;28;95807;-96
2023/08/10 08:21:20;;;;;;;5.93;1.38;;;20.70;82.50;;;;;;4962353;22;93299;-83
2023/08/10 08:23:47;;;;;;;3.58;1.33;;;20.70;81.20;;;;;;4967329;28;92941;-84
2023/08/10 08:26:17;;;;;;;3.30;1.15;;;20.70;78.20;;;;;;4964598;28;94259;-79
2023/08/10 08:28:44;;;;;;;3.10;1.15;;;20.90;77.80;;;;;;4965701;28;93937;-81
2023/08/10 08:31:10;;;;;;;3.42;1.17;;;21.00;79.20;;;;;;4950963;28;93684;-80
2023/08/10 08:33:36;;;;;;;3.90;1.25;;;21.10;78.50;;;;;;4964699;28;93121;-80
2023/08/10 08:36:03;;;;;;;2.05;1.02;;;21.30;76.40;;;;;;4965786;28;93750;-79
2023/08/10 08:38:29;;;;;;;4.57;1.00;;;21.50;80.30;;;;;;4966964;28;97639;-81
2023/08/10 08:40:56;;;;;;;3.50;1.60;;;21.70;78.90;;;;;;4965831;28;92437;-79
2023/08/10 08:43:22;;;;;;;2.72;1.10;;;22.00;75.50;;;;;;4965440;28;91960;-81
2023/08/10 08:45:48;;;;;;;3.03;1.30;;;22.10;73.70;;;;;;4965358;28;93418;-80
2023/08/10 08:48:15;;;;;;;4.97;1.65;;;22.30;74.00;;;;;;4945462;28;96348;-81
2023/08/10 08:50:42;;;;;;;1.60;1.00;;;22.40;72.00;;;;;;4966694;28;94087;-79
2023/08/10 08:53:12;;;;;;;3.95;1.10;;;22.60;75.70;;;;;;4944578;28;92334;-79
2023/08/10 08:55:39;;;;;;;3.05;0.93;;;22.80;75.00;;;;;;4960937;28;95196;-81
2023/08/10 08:58:04;;;;;;;3.00;1.00;;;23.00;77.50;;;;;;4965917;28;93719;-77
2023/08/10 09:00:31;;;;;;;2.55;1.10;;;23.30;76.80;;;;;;4963429;28;93470;-81
2023/08/10 09:02:58;;;;;;;6.55;1.10;;;23.50;76.90;;;;;;4948907;28;92772;-81
2023/08/10 09:05:23;;;;;;;3.85;1.15;;;23.80;74.70;;;;;;4964599;28;93799;-79
2023/08/10 09:07:51;;;;;;;2.35;0.93;;;23.90;67.20;;;;;;4965881;28;93172;-83
2023/08/10 09:10:17;;;;;;;2.30;0.70;;;24.00;69.10;;;;;;4947175;28;92865;-81
2023/08/10 09:12:42;;;;;;;2.00;0.77;;;24.20;73.90;;;;;;4964147;28;92799;-81
2023/08/10 09:15:17;;;;;;;2.42;1.00;;;24.50;73.70;;;;;;4962850;28;94337;-82
2023/08/10 09:17:47;;;;;;;3.50;1.05;;;24.70;73.60;;;;;;4964123;28;94810;-80
2023/08/10 09:20:28;;;;;;;4.93;0.88;;;25.00;71.00;;;;;;4945608;28;92228;-80
2023/08/10 09:22:56;;;;;;;3.65;1.13;;;25.10;70.20;;;;;;4949431;28;92696;-79
2023/08/10 09:25:22;;;;;;;1.70;0.63;;;25.20;63.60;;;;;;4962193;28;93266;-79
2023/08/10 09:27:49;;;;;;;4.18;0.77;;;25.30;69.60;;;;;;4965145;28;92877;-80
2023/08/10 09:30:16;;;;;;;2.17;0.70;;;25.50;70.00;;;;;;4954171;28;92639;-79
2023/08/10 09:32:42;;;;;;;1.98;0.70;;;25.60;63.00;;;;;;4965997;28;92073;-78
2023/08/10 09:35:18;;;;;;;2.75;0.95;;;25.70;63.50;;;;;;4945928;28;96607;-80
2023/08/10 09:37:46;;;;;;;2.50;1.00;;;25.80;62.40;;;;;;4962922;28;96342;-79
2023/08/10 09:40:15;;;;;;;4.05;0.90;;;25.90;59.40;;;;;;4944956;28;93677;-80
2023/08/10 09:42:41;;;;;;;3.45;0.93;;;25.90;58.00;;;;;;4965707;28;92926;-78
2023/08/10 09:45:09;;;;;;;3.50;1.38;;;25.90;62.20;;;;;;4962072;28;93946;-81
2023/08/10 09:47:40;;;;;;;3.60;0.85;;;26.00;61.90;;;;;;4965150;28;95134;-80
2023/08/10 09:50:12;;;;;;;3.00;1.02;;;26.20;63.20;;;;;;4963755;28;92456;-79
2023/08/10 09:52:39;;;;;;;3.78;1.00;;;26.40;65.30;;;;;;4964437;28;92561;-79
2023/08/10 09:55:06;;;;;;;5.05;1.20;;;26.60;63.20;;;;;;4962701;28;92607;-81
2023/08/10 09:57:33;;;;;;;2.85;0.95;;;26.70;61.20;;;;;;4952525;28;96072;-80
2023/08/10 09:59:59;;;;;;;2.63;1.08;;;26.80;59.60;;;;;;4957092;28;92280;-80
2023/08/10 10:02:26;;;;;;;2.65;0.80;;;26.90;56.50;;;;;;4962520;28;92602;-80
2023/08/10 10:04:52;;;;;;;3.08;1.00;;;26.90;58.50;;;;;;4963536;28;94180;-81
2023/08/10 10:07:27;;;;;;;2.75;0.82;;;27.00;59.80;;;;;;4953287;28;98219;-81
2023/08/10 10:09:56;;;;;;;2.33;0.80;;;27.10;60.70;;;;;;4962668;28;92930;-80
2023/08/10 10:12:23;;;;;;;4.07;0.80;;;27.30;59.90;;;;;;4947609;28;92820;-79
2023/08/10 10:14:51;;;;;;;1.17;0.80;;;27.50;58.30;;;;;;4966592;28;94121;-80
2023/08/10 10:17:18;;;;;;;2.38;0.80;;;27.50;58.00;;;;;;4964826;28;95999;-78
2023/08/10 10:19:46;;;;;;;2.50;0.98;;;27.60;57.60;;;;;;4951097;28;93136;-82
2023/08/10 10:22:12;;;;;;;2.75;0.65;;;27.70;57.20;;;;;;4963113;28;91839;-81
2023/08/10 10:24:41;;;;;;;2.63;0.82;;;27.80;56.30;;;;;;4949202;28;96752;-79
2023/08/10 10:27:14;;;;;;;1.67;0.88;;;27.90;59.10;;;;;;4951708;28;98503;-82
2023/08/10 10:29:49;;;;;;;2.67;1.03;;;28.20;56.90;;;;;;4949337;28;93272;-83
2023/08/10 10:32:21;;;;;;;2.70;0.80;;;28.40;55.40;;;;;;4966360;28;92520;-82
2023/08/10 10:34:51;;;;;;;1.92;0.55;;;28.60;58.80;;;;;;4956261;28;96572;-80
2023/08/10 10:37:34;;;;;;;2.33;0.55;;;28.80;59.50;;;;;;4948813;28;95571;-80
2023/08/10 10:40:13;;;;;;;;;;;29.10;57.00;;;;;;4951286;28;92782;-81
2023/08/10 10:43:02;;;;;;;4.18;0.80;;;29.30;55.60;;;;;;4958752;28;92793;-82
2023/08/10 10:45:33;;;;;;;3.67;0.90;;;29.40;53.80;;;;;;4975510;28;96020;-82
2023/08/10 10:47:59;;;;;;;4.43;1.33;;;29.40;54.10;;;;;;4951232;28;95311;-80
2023/08/10 10:50:28;;;;;;;4.30;1.17;;;29.50;60.00;;;;;;4967561;28;92610;-81
2023/08/10 10:53:01;;;;;;;7.05;1.73;;;29.80;58.00;;;;;;4947258;28;92921;-81
2023/08/10 10:55:34;;;;;;;5.35;1.63;;;30.00;58.20;;;;;;4963102;28;100509;-82
2023/08/10 10:58:02;;;;;;;16.25;3.47;;;30.20;58.10;;;;;;4965508;28;96081;-82
2023/08/10 11:00:28;;;;;;;8.15;1.73;;;30.40;54.30;;;;;;4967210;28;92677;-81
2023/08/10 11:02:57;;;;;;;8.85;1.63;;;30.50;53.30;;;;;;4951784;28;92834;-82
2023/08/10 11:05:23;;;;;;;7.38;1.10;;;30.60;54.50;;;;;;4957926;28;96289;-79
2023/08/10 11:07:50;;;;;;;4.25;0.90;;;30.70;54.60;;;;;;4950998;28;95265;-82
2023/08/10 11:10:17;;;;;;;5.32;1.30;;;30.80;55.50;;;;;;4965778;28;92611;-81
2023/08/10 11:12:44;;;;;;;3.33;1.20;;;30.90;54.70;;;;;;4948201;28;92286;-80
2023/08/10 11:15:12;;;;;;;5.68;1.10;;;31.10;52.70;;;;;;4973094;28;95294;-81
2023/08/10 11:17:39;;;;;;;4.05;1.10;;;31.20;55.10;;;;;;4964561;28;95450;-80
2023/08/10 11:20:08;;;;;;;3.70;1.40;;;31.40;52.10;;;;;;4947714;28;93650;-81
2023/08/10 11:22:37;;;;;;;2.67;0.90;;;31.50;52.30;;;;;;4964899;28;92546;-80
2023/08/10 11:25:11;;;;;;;4.13;0.90;;;31.70;52.70;;;;;;4947144;28;96912;-79
2023/08/10 11:27:43;;;;;;;3.60;0.80;;;31.80;50.90;;;;;;4946747;28;95474;-80
2023/08/10 11:30:10;;;;;;;16.05;2.13;;;31.90;51.40;;;;;;4965510;28;92484;-80
2023/08/10 11:32:40;;;;;;;7.68;1.42;;;31.80;49.00;;;;;;4955915;28;92980;-84
2023/08/10 11:35:07;;;;;;;5.97;0.98;;;31.80;52.00;;;;;;4955451;28;96327;-81
2023/08/10 11:37:36;;;;;;;10.50;1.70;;;31.90;52.40;;;;;;4947311;28;96199;-85
2023/08/10 11:40:07;;;;;;;3.38;0.70;;;32.10;50.40;;;;;;4965136;28;92713;-81
2023/08/10 11:42:36;;;;;;;13.55;1.50;;;32.20;51.50;;;;;;4964961;28;93009;-81
2023/08/10 11:45:23;;;;;;;10.80;1.70;;;32.20;49.50;;;;;;4964605;28;95035;-82
2023/08/10 11:47:52;;;;;;;4.35;1.13;;;32.20;53.20;;;;;;4956637;28;102101;-81
2023/08/10 11:50:20;;;;;;;2.40;0.70;;;32.40;52.60;;;;;;4955134;28;92597;-79
2023/08/10 11:52:49;;;;;;;3.10;0.60;;;32.60;48.90;;;;;;4947440;28;92891;-82
2023/08/10 11:55:16;;;;;;;12.60;1.60;;;32.70;51.40;;;;;;4946685;28;96782;-82
2023/08/10 11:57:44;;;;;;;4.05;1.05;;;32.90;52.30;;;;;;4964637;28;93890;-82
2023/08/10 12:00:19;;;;;;;2.40;0.75;;;33.10;50.70;;;;;;4964361;28;92370;-84
2023/08/10 12:03:01;;;;;;;22.55;3.83;;;33.20;49.00;;;;;;4957226;28;92188;-83
2023/08/10 12:05:38;;;;;;;3.08;0.80;;;33.30;48.50;;;;;;4964608;28;97760;-84
2023/08/10 12:08:06;;;;;;;2.65;0.82;;;33.40;49.10;;;;;;4964346;28;95877;-86
2023/08/10 12:10:41;;;;;;;3.53;0.65;;;33.40;49.40;;;;;;4945899;28;93495;-83
2023/08/10 12:13:10;;;;;;;6.38;1.40;;;33.60;45.90;;;;;;4964644;28;92290;-83
2023/08/10 12:15:37;;;;;;;6.28;0.80;;;33.50;46.00;;;;;;4963403;28;96657;-84
2023/08/10 12:18:07;;;;;;;1.35;0.80;;;33.40;49.60;;;;;;4962570;28;96350;-83
2023/08/10 12:20:33;;;;;;;3.50;0.75;;;33.50;45.60;;;;;;4947465;28;93016;-86
2023/08/10 12:22:58;;;;;;;2.47;0.57;;;33.40;45.30;;;;;;4962143;28;92745;-85
2023/08/10 12:25:24;;;;;;;1.70;0.65;;;33.40;47.00;;;;;;4961629;28;95293;-85
2023/08/10 12:27:50;;;;;;;1.55;0.55;;;33.40;48.20;;;;;;4946418;28;96441;-82
2023/08/10 12:30:16;;;;;;;2.72;0.60;;;33.40;46.30;;;;;;4945868;28;92303;-82
2023/08/10 12:32:42;;;;;;;1.90;0.90;;;33.30;47.90;;;;;;4964586;28;92188;-80
2023/08/10 12:35:08;;;;;;;18.15;1.88;;;33.40;47.80;;;;;;4943856;28;97264;-80
2023/08/10 12:37:33;;;;;;;14.05;1.42;;;33.60;48.00;;;;;;4954227;28;96974;-80
2023/08/10 12:39:59;;;;;;;4.88;1.02;;;33.60;43.60;;;;;;4964943;28;92765;-81
2023/08/10 12:42:25;;;;;;;2.25;1.10;;;33.50;48.60;;;;;;4963569;28;92537;-80
2023/08/10 12:44:51;;;;;;;3.83;0.82;;;33.60;44.00;;;;;;4965794;28;92924;-81
2023/08/10 12:47:17;;;;;;;1.65;0.77;;;33.70;48.10;;;;;;4944658;28;96213;-80
2023/08/10 12:49:43;;;;;;;1.63;0.88;;;33.90;47.40;;;;;;4962798;28;92871;-81
2023/08/10 12:52:09;;;;;;;1.63;0.70;;;34.00;43.70;;;;;;4961511;28;91529;-80
2023/08/10 12:54:35;;;;;;;5.95;1.48;;;34.00;47.50;;;;;;4951969;28;95576;-80
2023/08/10 12:57:02;;;;;;;5.00;0.70;;;34.20;47.20;;;;;;4962818;28;94940;-80
2023/08/10 12:59:27;;;;;;;3.40;0.80;;;34.40;44.30;;;;;;4962700;28;93532;-81
2023/08/10 13:01:53;;;;;;;5.97;0.75;;;34.50;48.50;;;;;;4963834;28;92513;-80
2023/08/10 13:04:19;;;;;;;1.60;0.70;;;34.70;45.90;;;;;;4945901;28;96865;-81
2023/08/10 13:06:44;;;;;;;1.08;0.55;;;35.00;46.90;;;;;;4945621;28;95686;-81
2023/08/10 13:09:10;;;;;;;2.28;0.80;;;35.20;45.70;;;;;;4964535;28;92596;-81
2023/08/10 13:11:36;;;;;;;2.08;0.50;;;35.20;46.30;;;;;;4965031;28;93098;-80
2023/08/10 13:14:03;;;;;;;6.22;0.90;;;35.50;46.10;;;;;;4964768;28;93813;-79